Time;durP1;ratioP1;P1;durP2;ratioP2;P2;SDS_P1;SDS_P2;PMS_P1;PMS_P2;Temp;Humidity;BMP_temperature;BMP_pressure;BME280_temperature;BME280_humidity;BME280_pressure;Samples;Min_cycle;Max_cycle;Signal;HPM_P1;HPM_P2
2023/03/17 00:00:09;;;;;;;9.00;4.03;;;7.00;99.90;;;;;;6156390;23;20486;-83
2023/03/17 00:02:44;;;;;;;9.80;4.10;;;6.10;99.90;;;;;;6129310;23;20101;-84
2023/03/17 00:05:17;;;;;;;12.47;4.10;;;6.20;99.90;;;;;;6155616;23;20016;-83
2023/03/17 00:07:52;;;;;;;10.55;4.25;;;6.10;99.90;;;;;;6129718;23;20872;-83
2023/03/17 00:10:43;;;;;;;10.03;4.30;;;6.30;99.90;;;;;;6130408;23;20013;-83
2023/03/17 00:13:11;;;;;;;10.73;4.27;;;6.60;99.90;;;;;;6101840;23;20056;-83
2023/03/17 00:19:22;;;;;;;10.03;4.10;;;6.10;99.90;;;;;;6069254;23;20022;-83
2023/03/17 00:21:54;;;;;;;11.37;4.20;;;7.80;99.90;;;;;;6097049;23;20073;-83
2023/03/17 00:24:36;;;;;;;9.47;4.10;;;5.20;99.90;;;;;;6130197;23;20061;-83
2023/03/17 00:27:17;;;;;;;10.27;4.00;;;5.80;99.90;;;;;;6155230;23;20330;-83
2023/03/17 00:33:33;;;;;;;10.00;4.20;;;5.90;99.90;;;;;;6154036;23;20024;-83
2023/03/17 00:36:00;;;;;;;10.60;4.60;;;5.70;99.90;;;;;;6100569;23;20387;-83
2023/03/17 00:38:31;;;;;;;10.20;4.33;;;5.70;99.90;;;;;;6126278;23;20096;-83
2023/03/17 00:43:45;;;;;;;11.03;4.80;;;5.90;99.90;;;;;;6167990;23;20084;-83
2023/03/17 00:47:18;;;;;;;10.63;4.80;;;6.10;99.90;;;;;;6162774;23;20147;-82
2023/03/17 00:50:48;;;;;;;10.33;4.83;;;5.40;99.90;;;;;;6130594;23;20021;-83
2023/03/17 00:53:20;;;;;;;11.23;4.90;;;5.20;99.90;;;;;;6161902;23;20021;-83
2023/03/17 00:55:46;;;;;;;11.23;4.70;;;6.00;99.90;;;;;;6130809;23;20060;-83
2023/03/17 01:08:37;;;;;;;10.35;4.78;;;7.40;99.90;;;;;;6155224;23;20103;-83
2023/03/17 01:11:29;;;;;;;10.03;4.90;;;6.00;99.90;;;;;;6155530;23;20493;-83
2023/03/17 01:13:57;;;;;;;12.80;4.47;;;5.80;99.90;;;;;;6069688;23;20491;-83
2023/03/17 01:16:23;;;;;;;11.90;5.60;;;5.70;99.90;;;;;;6093578;23;20142;-82
2023/03/17 01:18:49;;;;;;;9.53;4.30;;;5.40;99.90;;;;;;6129937;23;20057;-83
2023/03/17 01:21:30;;;;;;;10.73;4.77;;;5.50;99.90;;;;;;6129135;23;20018;-83
2023/03/17 01:24:14;;;;;;;10.73;4.73;;;6.90;99.90;;;;;;6155122;23;20338;-83
2023/03/17 01:26:40;;;;;;;10.67;4.90;;;5.50;99.90;;;;;;6128969;23;20021;-83
2023/03/17 01:29:34;;;;;;;10.80;5.00;;;6.10;99.90;;;;;;6128486;23;20021;-83
2023/03/17 01:34:51;;;;;;;9.30;4.80;;;5.60;99.90;;;;;;6164147;23;20462;-82
2023/03/17 01:37:23;;;;;;;10.37;5.17;;;6.30;99.90;;;;;;6128221;23;20017;-83
2023/03/17 01:39:58;;;;;;;10.50;4.87;;;6.60;99.90;;;;;;6128892;23;20017;-83
2023/03/17 01:42:33;;;;;;;11.80;4.53;;;5.10;99.90;;;;;;6128857;23;20024;-83
2023/03/17 01:45:47;;;;;;;9.70;4.90;;;6.80;99.90;;;;;;6154286;23;20343;-83
2023/03/17 01:48:16;;;;;;;11.52;4.95;;;5.10;99.90;;;;;;6155129;23;20443;-83
2023/03/17 01:50:57;;;;;;;11.17;5.13;;;5.60;99.90;;;;;;6127716;23;20013;-83
2023/03/17 01:53:37;;;;;;;10.43;4.70;;;5.80;99.90;;;;;;6128757;23;20346;-83
2023/03/17 01:56:07;;;;;;;11.07;4.80;;;5.50;99.90;;;;;;6155290;23;20025;-84
2023/03/17 01:58:36;;;;;;;10.67;4.80;;;5.40;99.90;;;;;;6154480;23;20025;-83
2023/03/17 02:01:02;;;;;;;11.23;5.33;;;7.00;99.90;;;;;;6129224;23;20073;-83
2023/03/17 02:05:57;;;;;;;9.93;4.90;;;5.60;99.90;;;;;;6153506;23;20033;-83
2023/03/17 02:08:25;;;;;;;10.57;5.13;;;7.40;99.90;;;;;;6155616;23;20076;-83
2023/03/17 02:11:09;;;;;;;11.60;5.20;;;5.30;99.90;;;;;;6129042;23;20088;-83
2023/03/17 02:13:43;;;;;;;11.33;5.33;;;5.30;99.90;;;;;;6128629;23;20022;-83
2023/03/17 02:16:32;;;;;;;11.70;5.07;;;7.10;99.90;;;;;;6133845;23;20017;-83
2023/03/17 02:19:03;;;;;;;10.63;4.70;;;6.50;99.90;;;;;;6157953;23;20060;-83
2023/03/17 02:21:55;;;;;;;11.33;4.80;;;5.50;99.90;;;;;;6129658;23;20351;-83
2023/03/17 02:24:55;;;;;;;10.40;4.77;;;5.50;99.90;;;;;;6136508;23;20025;-83
2023/03/17 02:27:38;;;;;;;10.47;5.00;;;5.70;99.90;;;;;;6156283;23;20021;-83
2023/03/17 02:37:55;;;;;;;9.40;4.40;;;5.40;99.90;;;;;;6094459;23;20362;-83
2023/03/17 02:40:57;;;;;;;10.80;4.87;;;6.00;99.90;;;;;;6107540;23;20159;-83
2023/03/17 02:43:23;;;;;;;10.52;5.00;;;6.60;99.90;;;;;;6155588;23;20017;-83
2023/03/17 02:46:04;;;;;;;10.57;5.20;;;6.60;99.90;;;;;;6128782;23;20013;-84
2023/03/17 02:48:39;;;;;;;11.50;4.90;;;6.50;99.90;;;;;;6155332;23;20021;-83
2023/03/17 02:51:44;;;;;;;10.90;5.17;;;7.20;99.90;;;;;;6155180;23;20450;-84
2023/03/17 02:54:09;;;;;;;11.30;5.30;;;4.70;99.90;;;;;;6130115;23;20014;-83
2023/03/17 02:56:36;;;;;;;12.07;5.30;;;5.40;99.90;;;;;;6130367;23;20358;-83
2023/03/17 02:59:26;;;;;;;10.60;5.10;;;5.00;99.90;;;;;;6130861;23;20092;-83
2023/03/17 03:01:55;;;;;;;11.10;5.00;;;6.20;99.90;;;;;;6155314;23;20021;-83
2023/03/17 03:04:33;;;;;;;10.37;5.07;;;5.40;99.90;;;;;;6130460;23;20044;-83
2023/03/17 03:07:11;;;;;;;11.20;5.37;;;4.70;99.90;;;;;;6130447;23;20060;-83
2023/03/17 03:09:55;;;;;;;10.27;4.87;;;4.90;99.90;;;;;;6156623;23;20045;-83
2023/03/17 03:12:36;;;;;;;11.48;5.18;;;4.60;99.90;;;;;;6156972;23;20017;-83
2023/03/17 03:15:01;;;;;;;10.70;4.87;;;5.20;99.90;;;;;;6129821;23;20469;-84
2023/03/17 03:17:27;;;;;;;11.17;4.73;;;5.20;99.90;;;;;;6156893;23;20021;-84
2023/03/17 03:20:15;;;;;;;10.00;4.90;;;4.20;99.90;;;;;;6157185;23;20517;-83
2023/03/17 03:22:40;;;;;;;10.93;4.90;;;5.60;99.90;;;;;;6129782;23;20020;-83
2023/03/17 03:25:36;;;;;;;10.87;4.60;;;5.20;99.90;;;;;;6131018;23;20357;-83
2023/03/17 03:28:18;;;;;;;11.73;4.90;;;5.30;99.90;;;;;;6157200;23;20171;-83
2023/03/17 03:30:58;;;;;;;12.13;4.97;;;5.10;99.90;;;;;;6156122;23;20025;-83
2023/03/17 03:33:24;;;;;;;11.00;4.90;;;6.80;99.90;;;;;;6130426;23;20024;-83
2023/03/17 03:36:14;;;;;;;;;;;5.50;99.90;;;;;;6156881;23;20096;-83
2023/03/17 03:38:40;;;;;;;12.00;4.90;;;5.30;99.90;;;;;;6130377;23;19924;-84
2023/03/17 03:41:28;;;;;;;9.83;4.90;;;6.60;99.90;;;;;;6130463;23;20025;-84
2023/03/17 03:53:52;;;;;;;10.37;4.60;;;5.20;99.90;;;;;;6136453;23;20088;-83
2023/03/17 03:56:36;;;;;;;9.77;4.27;;;4.60;99.90;;;;;;6135968;23;20021;-83
2023/03/17 03:59:02;;;;;;;10.75;4.28;;;6.80;99.90;;;;;;6130829;23;20017;-83
2023/03/17 04:01:28;;;;;;;10.73;4.70;;;4.90;99.90;;;;;;6129827;23;20350;-83
2023/03/17 04:03:53;;;;;;;10.60;4.70;;;6.10;99.90;;;;;;6174949;23;19998;-84
2023/03/17 04:06:40;;;;;;;10.33;4.80;;;5.10;99.90;;;;;;6155000;23;20013;-83
2023/03/17 04:09:08;;;;;;;10.63;4.67;;;5.40;99.90;;;;;;6135190;23;20072;-83
2023/03/17 04:11:33;;;;;;;10.43;4.70;;;4.80;99.90;;;;;;6131177;23;20028;-83
2023/03/17 04:16:58;;;;;;;10.03;4.73;;;5.20;99.90;;;;;;6130016;23;20025;-83
2023/03/17 04:19:42;;;;;;;12.43;4.90;;;6.40;99.90;;;;;;6129419;23;20021;-84
2023/03/17 04:22:10;;;;;;;10.45;5.03;;;5.00;99.90;;;;;;6130115;23;20013;-83
2023/03/17 04:24:55;;;;;;;13.40;5.50;;;5.10;99.90;;;;;;6155260;23;20454;-83
2023/03/17 04:27:21;;;;;;;12.43;5.83;;;5.10;99.90;;;;;;6130176;23;20022;-83
2023/03/17 04:29:47;;;;;;;14.03;5.73;;;6.60;99.90;;;;;;6156342;23;20025;-84
2023/03/17 04:32:14;;;;;;;12.53;5.43;;;5.20;99.90;;;;;;6129182;23;20041;-83
2023/03/17 04:34:41;;;;;;;12.90;5.63;;;5.50;99.90;;;;;;6156208;23;20018;-82
2023/03/17 04:37:15;;;;;;;10.63;4.73;;;4.80;99.90;;;;;;6129694;23;20014;-83
2023/03/17 04:40:10;;;;;;;11.57;4.93;;;4.80;99.90;;;;;;6128936;23;20009;-83
2023/03/17 04:42:45;;;;;;;11.83;4.80;;;4.40;99.90;;;;;;6129684;23;20013;-83
2023/03/17 04:45:49;;;;;;;11.60;5.00;;;4.90;99.90;;;;;;6129381;23;20025;-83
2023/03/17 04:48:42;;;;;;;10.68;4.95;;;5.10;99.90;;;;;;6070117;23;20387;-83
2023/03/17 04:51:13;;;;;;;11.33;5.07;;;5.40;99.90;;;;;;6070069;23;20018;-83
2023/03/17 04:53:57;;;;;;;10.93;4.70;;;6.00;99.90;;;;;;6069456;23;20018;-83
2023/03/17 04:56:38;;;;;;;10.43;4.70;;;4.90;99.90;;;;;;6094265;23;20015;-83
2023/03/17 04:59:04;;;;;;;10.90;4.83;;;5.00;99.90;;;;;;6110117;23;20024;-83
2023/03/17 05:01:42;;;;;;;10.90;4.93;;;6.80;99.90;;;;;;6154165;23;20017;-83
2023/03/17 05:04:08;;;;;;;11.37;5.10;;;6.20;99.90;;;;;;6154472;23;20032;-83
2023/03/17 05:06:57;;;;;;;12.57;4.80;;;6.70;99.90;;;;;;6127832;23;20446;-83
2023/03/17 05:09:53;;;;;;;10.70;4.80;;;5.20;99.90;;;;;;6129036;23;20025;-83
2023/03/17 05:12:23;;;;;;;11.00;4.97;;;6.20;99.90;;;;;;6155988;23;20017;-83
2023/03/17 05:15:29;;;;;;;12.00;5.00;;;4.40;99.90;;;;;;6154739;23;20013;-83
2023/03/17 05:22:37;;;;;;;11.27;4.90;;;4.30;99.90;;;;;;6109905;23;20006;-83
2023/03/17 05:26:13;;;;;;;12.07;5.00;;;4.60;99.90;;;;;;6100686;23;20013;-83
2023/03/17 05:28:54;;;;;;;11.73;4.75;;;4.50;99.90;;;;;;6132343;23;20018;-83
2023/03/17 05:31:19;;;;;;;9.80;4.63;;;4.80;99.90;;;;;;6121452;23;20437;-83
2023/03/17 05:34:48;;;;;;;11.10;4.80;;;4.70;99.90;;;;;;6129445;23;20029;-81
2023/03/17 05:43:18;;;;;;;11.10;4.70;;;5.10;99.90;;;;;;6151618;23;20029;-83
2023/03/17 05:46:02;;;;;;;12.33;4.83;;;5.00;99.90;;;;;;6129110;23;20144;-83
2023/03/17 05:48:31;;;;;;;9.80;4.40;;;5.10;99.90;;;;;;6129264;23;20068;-83
2023/03/17 05:50:57;;;;;;;9.47;4.60;;;6.50;99.90;;;;;;6128144;23;20017;-83
2023/03/17 05:53:42;;;;;;;9.30;4.30;;;4.70;99.90;;;;;;6128952;23;20017;-83
2023/03/17 05:56:16;;;;;;;12.07;4.70;;;4.90;99.90;;;;;;6154865;23;20018;-84
2023/03/17 06:06:35;;;;;;;9.80;4.30;;;4.30;99.90;;;;;;6163655;23;20447;-93
2023/03/17 06:09:01;;;;;;;10.73;4.50;;;4.10;99.90;;;;;;6129291;23;20013;-90
2023/03/17 06:11:27;;;;;;;10.13;4.27;;;6.20;99.90;;;;;;6155180;23;20051;-87
2023/03/17 06:13:53;;;;;;;9.53;4.20;;;5.20;99.90;;;;;;6157423;23;20022;-87
2023/03/17 06:16:41;;;;;;;9.73;4.30;;;6.50;99.90;;;;;;6129211;23;20021;-92
2023/03/17 06:19:16;;;;;;;9.00;3.90;;;5.70;99.90;;;;;;6130164;23;20014;-94
2023/03/17 06:21:44;;;;;;;11.40;4.23;;;6.20;99.90;;;;;;6134532;23;20052;-92
2023/03/17 06:33:30;;;;;;;9.87;4.33;;;5.10;99.90;;;;;;6165728;23;20032;-93
2023/03/17 06:37:05;;;;;;;9.37;4.10;;;6.40;99.90;;;;;;6162147;23;20430;-95
2023/03/17 06:40:46;;;;;;;10.47;3.83;;;7.00;99.90;;;;;;6134743;23;20022;-94
2023/03/17 06:43:12;;;;;;;11.33;4.43;;;5.30;99.90;;;;;;6158931;23;20101;-94
2023/03/17 06:45:41;;;;;;;9.10;3.80;;;5.90;99.90;;;;;;6131172;23;20446;-94
2023/03/17 06:48:11;;;;;;;9.97;4.10;;;6.20;99.90;;;;;;6120979;23;20025;-94
2023/03/17 06:50:37;;;;;;;9.87;3.93;;;7.00;99.90;;;;;;6132894;23;20092;-90
2023/03/17 06:53:03;;;;;;;10.47;4.17;;;5.80;99.90;;;;;;6139228;23;20021;-87
2023/03/17 06:55:47;;;;;;;8.73;4.00;;;6.50;99.90;;;;;;6135863;23;20072;-92
2023/03/17 06:58:25;;;;;;;9.98;3.80;;;7.60;99.90;;;;;;6131971;23;20013;-91
2023/03/17 07:01:01;;;;;;;10.03;4.03;;;9.00;99.90;;;;;;6138567;23;20020;-92
2023/03/17 07:03:29;;;;;;;9.33;3.77;;;6.80;99.90;;;;;;6134481;23;20024;-91
2023/03/17 07:05:58;;;;;;;12.70;3.80;;;8.10;99.90;;;;;;6139307;23;20009;-91
2023/03/17 07:08:24;;;;;;;10.57;3.80;;;7.00;99.90;;;;;;6158479;23;20048;-91
2023/03/17 07:10:54;;;;;;;8.63;3.58;;;6.90;99.90;;;;;;6159550;23;20045;-92
2023/03/17 07:13:40;;;;;;;9.23;3.60;;;9.30;99.90;;;;;;6158975;23;20074;-93
2023/03/17 07:16:24;;;;;;;10.83;4.10;;;7.80;99.90;;;;;;6160095;23;20469;-91
2023/03/17 07:19:38;;;;;;;9.25;4.05;;;9.20;99.90;;;;;;6165181;23;20021;-92
2023/03/17 07:35:44;;;;;;;10.40;4.17;;;8.20;99.90;;;;;;6205654;23;20032;-92
2023/03/17 07:41:47;;;;;;;10.27;3.77;;;;;;;;;;6197703;23;20024;-93
2023/03/17 07:44:52;;;;;;;8.95;3.63;;;8.30;99.90;;;;;;6095132;23;20293;-92
2023/03/17 07:47:45;;;;;;;11.47;4.00;;;8.40;99.90;;;;;;6156584;23;20021;-95
2023/03/17 07:50:52;;;;;;;10.13;3.97;;;8.60;99.90;;;;;;6114605;23;20471;-96
2023/03/17 07:53:25;;;;;;;9.10;3.60;;;7.40;99.90;;;;;;6159575;23;20065;-93
2023/03/17 07:55:57;;;;;;;11.00;3.97;;;9.30;99.90;;;;;;6131001;23;20060;-94
2023/03/17 07:58:44;;;;;;;9.00;3.42;;;10.40;99.90;;;;;;6138678;23;20018;-95
2023/03/17 08:12:52;;;;;;;9.20;3.70;;;9.30;99.90;;;;;;6099437;23;20036;-94
2023/03/17 08:18:32;;;;;;;10.95;3.90;;;9.60;99.90;;;;;;6156477;23;20056;-93
2023/03/17 08:21:21;;;;;;;9.60;3.78;;;10.80;99.90;;;;;;6157529;23;20363;-93
2023/03/17 08:24:25;;;;;;;9.30;3.85;;;10.10;99.90;;;;;;6094586;23;20411;-93
2023/03/17 08:27:06;;;;;;;10.02;3.80;;;8.80;99.90;;;;;;6094444;23;20053;-93
2023/03/17 08:33:13;;;;;;;9.70;3.70;;;11.30;99.90;;;;;;6073521;23;20089;-92
2023/03/17 08:35:54;;;;;;;9.00;3.67;;;10.10;99.90;;;;;;6089258;23;20356;-94
2023/03/17 08:38:39;;;;;;;10.80;3.85;;;11.50;99.90;;;;;;6071993;23;20021;-93
2023/03/17 08:48:36;;;;;;;9.55;3.83;;;10.20;99.90;;;;;;6136964;23;20405;-92
2023/03/17 08:51:03;;;;;;;11.85;4.13;;;11.50;99.90;;;;;;6159173;23;20350;-92
2023/03/17 08:53:33;;;;;;;10.57;4.45;;;10.50;99.90;;;;;;6129175;23;20013;-91
2023/03/17 08:56:18;;;;;;;9.60;4.18;;;10.50;99.90;;;;;;6138093;23;20082;-91
2023/03/17 08:58:50;;;;;;;10.52;4.65;;;12.10;99.90;;;;;;6166449;23;20017;-92
2023/03/17 09:01:17;;;;;;;8.88;3.53;;;11.80;99.90;;;;;;6131117;23;20018;-92
2023/03/17 09:24:57;;;;;;;9.75;3.45;;;11.80;99.90;;;;;;6149129;23;20032;-93
2023/03/17 09:27:29;;;;;;;9.45;3.38;;;12.10;99.90;;;;;;6128379;23;20029;-95
2023/03/17 09:30:12;;;;;;;11.40;3.80;;;13.40;99.90;;;;;;6155937;23;20097;-93
2023/03/17 09:32:54;;;;;;;13.48;4.57;;;11.90;99.90;;;;;;6156005;23;20391;-94
2023/03/17 09:35:21;;;;;;;10.48;3.33;;;13.40;99.90;;;;;;6130407;23;20022;-92
2023/03/17 09:38:08;;;;;;;11.57;3.53;;;12.10;99.90;;;;;;6171276;23;20025;-93
2023/03/17 09:40:53;;;;;;;8.45;3.40;;;13.60;99.90;;;;;;6181169;23;20005;-90
2023/03/17 10:05:50;;;;;;;9.98;3.65;;;12.90;99.90;;;;;;6174229;23;20026;-93
2023/03/17 10:08:28;;;;;;;13.43;5.00;;;13.00;99.90;;;;;;6134087;23;20026;-94
2023/03/17 10:11:22;;;;;;;11.48;3.90;;;13.10;99.90;;;;;;6117592;23;20024;-94
2023/03/17 10:20:46;;;;;;;11.98;4.18;;;13.40;99.90;;;;;;6165756;23;20018;-94
2023/03/17 10:23:47;;;;;;;9.57;3.80;;;13.60;99.90;;;;;;6134668;23;20025;-92
2023/03/17 10:29:58;;;;;;;10.07;4.10;;;13.10;99.90;;;;;;6158450;23;20029;-94
2023/03/17 10:35:18;;;;;;;10.27;4.45;;;13.40;99.90;;;;;;6156366;23;20016;-94
2023/03/17 10:38:46;;;;;;;8.98;3.58;;;14.70;99.90;;;;;;6155824;23;20013;-93
2023/03/17 10:42:04;;;;;;;10.00;4.30;;;13.50;99.90;;;;;;6130598;23;20055;-94
2023/03/17 10:45:40;;;;;;;10.85;4.30;;;13.70;99.90;;;;;;6135404;23;20005;-95
2023/03/17 10:48:09;;;;;;;9.85;4.40;;;13.60;99.90;;;;;;6163611;23;20030;-95
2023/03/17 10:50:38;;;;;;;10.30;4.13;;;14.40;99.90;;;;;;6132737;23;20021;-94
2023/03/17 10:53:27;;;;;;;11.00;4.65;;;14.70;99.90;;;;;;6160994;23;20021;-93
2023/03/17 10:56:35;;;;;;;11.93;4.50;;;14.90;99.90;;;;;;6136374;23;20450;-94
2023/03/17 11:03:20;;;;;;;10.35;4.30;;;15.20;99.90;;;;;;6132793;23;20076;-90
2023/03/17 11:06:23;;;;;;;10.82;4.28;;;15.40;99.90;;;;;;6129134;23;20829;-89
2023/03/17 11:19:20;;;;;;;11.02;4.53;;;16.20;99.90;;;;;;6156731;23;20026;-92
2023/03/17 11:22:27;;;;;;;10.55;4.38;;;15.80;99.90;;;;;;6131030;23;20020;-93
2023/03/17 11:25:22;;;;;;;10.20;4.47;;;16.60;99.90;;;;;;6098015;23;20018;-93
2023/03/17 11:28:21;;;;;;;12.93;4.70;;;16.60;99.90;;;;;;6133526;23;20028;-92
2023/03/17 11:31:14;;;;;;;10.68;4.40;;;16.80;99.90;;;;;;6147103;23;20025;-94
2023/03/17 11:34:22;;;;;;;11.43;4.60;;;16.80;99.90;;;;;;6157261;23;20040;-94
2023/03/17 11:37:28;;;;;;;11.23;4.45;;;16.70;99.90;;;;;;6175926;23;20037;-95
2023/03/17 11:40:02;;;;;;;10.65;4.03;;;16.60;99.90;;;;;;6132465;23;20014;-93
2023/03/17 11:56:37;;;;;;;10.27;4.22;;;17.10;99.90;;;;;;6158932;23;20032;-94
2023/03/17 11:59:30;;;;;;;10.98;4.40;;;16.90;99.90;;;;;;6131331;23;20108;-94
2023/03/17 12:02:35;;;;;;;11.93;4.10;;;16.60;99.90;;;;;;6131339;23;20064;-92
2023/03/17 12:05:33;;;;;;;11.20;4.40;;;16.20;99.90;;;;;;6130183;23;20253;-93
2023/03/17 12:10:53;;;;;;;9.60;4.30;;;16.60;99.90;;;;;;6167498;23;20083;-92
2023/03/17 12:13:46;;;;;;;10.43;4.47;;;16.50;99.90;;;;;;6156938;23;20017;-90
2023/03/17 12:19:54;;;;;;;12.60;4.88;;;16.20;99.90;;;;;;6156278;23;20029;-86
2023/03/17 12:26:13;;;;;;;11.52;4.55;;;16.20;99.90;;;;;;6130580;23;20053;-90
2023/03/17 12:29:10;;;;;;;9.63;4.40;;;16.10;99.90;;;;;;6156632;23;20018;-91
2023/03/17 12:32:08;;;;;;;12.55;4.60;;;16.00;99.90;;;;;;6129764;23;20064;-90
2023/03/17 12:35:06;;;;;;;12.52;4.90;;;16.00;99.90;;;;;;6133530;23;20416;-90
2023/03/17 12:37:39;;;;;;;13.80;4.80;;;15.40;99.90;;;;;;6155764;23;20473;-90
2023/03/17 12:40:55;;;;;;;11.02;5.20;;;15.80;99.90;;;;;;6131045;23;20021;-90
2023/03/17 12:43:58;;;;;;;11.65;5.60;;;16.20;99.90;;;;;;6155039;23;20488;-92
2023/03/17 12:46:24;;;;;;;12.17;6.27;;;15.80;99.90;;;;;;6133422;23;20431;-90
2023/03/17 12:52:16;;;;;;;13.85;8.55;;;15.70;99.90;;;;;;6168827;23;20059;-91
2023/03/17 12:54:50;;;;;;;11.57;5.35;;;15.80;99.90;;;;;;6132823;23;20021;-90
2023/03/17 12:57:46;;;;;;;11.93;5.72;;;15.70;99.90;;;;;;6148768;23;20021;-91
2023/03/17 13:00:19;;;;;;;11.60;5.45;;;15.80;99.90;;;;;;6160303;23;20105;-92
2023/03/17 13:02:50;;;;;;;12.18;6.43;;;15.70;99.90;;;;;;6158374;23;20072;-91
2023/03/17 13:08:52;;;;;;;13.35;5.50;;;15.70;99.90;;;;;;6014528;23;20059;-91
2023/03/17 13:11:28;;;;;;;12.35;5.68;;;15.60;99.90;;;;;;6013669;23;20023;-90
2023/03/17 13:13:58;;;;;;;13.57;7.05;;;15.80;99.90;;;;;;6013056;23;20024;-92
2023/03/17 13:17:24;;;;;;;18.40;11.10;;;16.00;99.90;;;;;;5997563;23;20082;-90
2023/03/17 13:20:23;;;;;;;41.28;31.83;;;16.30;99.90;;;;;;6026251;23;20019;-90
2023/03/17 13:23:29;;;;;;;15.98;10.07;;;16.40;99.90;;;;;;6066170;23;20035;-88
2023/03/17 13:25:57;;;;;;;17.50;9.88;;;16.30;99.90;;;;;;6142247;23;20028;-91
2023/03/17 13:28:50;;;;;;;27.17;22.10;;;16.30;99.90;;;;;;6130423;23;20025;-90
2023/03/17 13:31:35;;;;;;;11.52;5.40;;;16.60;99.90;;;;;;6130626;23;20520;-91
2023/03/17 13:34:55;;;;;;;12.73;5.15;;;16.60;99.90;;;;;;6156670;23;20021;-93
2023/03/17 13:37:34;;;;;;;13.57;6.22;;;16.40;99.90;;;;;;6158498;23;20082;-92
2023/03/17 13:40:50;;;;;;;13.50;5.90;;;17.00;99.90;;;;;;6130645;23;20044;-90
2023/03/17 13:43:49;;;;;;;14.35;5.20;;;16.50;99.90;;;;;;6130224;23;20465;-91
2023/03/17 13:46:54;;;;;;;10.90;5.45;;;16.30;99.90;;;;;;6130023;23;20029;-91
2023/03/17 13:49:28;;;;;;;14.60;9.07;;;16.20;99.90;;;;;;6134566;23;20028;-90
2023/03/17 13:52:02;;;;;;;12.20;5.32;;;16.60;99.90;;;;;;6129913;23;20025;-90
2023/03/17 13:55:17;;;;;;;11.50;5.68;;;16.30;99.90;;;;;;6158893;23;20017;-92
2023/03/17 13:58:08;;;;;;;13.15;6.78;;;17.20;99.90;;;;;;6155494;23;20462;-93
2023/03/17 14:01:08;;;;;;;17.48;11.75;;;16.80;99.90;;;;;;6156585;23;20458;-91
2023/03/17 14:06:22;;;;;;;11.20;5.40;;;17.00;99.90;;;;;;6154144;23;20025;-94
2023/03/17 14:09:22;;;;;;;19.85;12.40;;;17.10;99.90;;;;;;6129601;23;20022;-94
2023/03/17 14:11:50;;;;;;;15.07;11.18;;;16.80;99.90;;;;;;6156618;23;20116;-93
2023/03/17 14:14:54;;;;;;;11.80;5.30;;;16.90;99.90;;;;;;6130705;23;20334;-93
2023/03/17 14:17:58;;;;;;;11.68;5.47;;;17.50;99.90;;;;;;6132095;23;20334;-94
2023/03/17 14:21:10;;;;;;;12.43;5.80;;;16.50;99.90;;;;;;6162560;23;20017;-94
2023/03/17 14:24:10;;;;;;;15.07;5.38;;;15.90;99.90;;;;;;6137540;23;20022;-92
2023/03/17 14:34:06;;;;;;;10.93;5.32;;;15.80;99.90;;;;;;6159198;23;20051;-90
2023/03/17 14:37:32;;;;;;;11.27;5.13;;;16.20;99.90;;;;;;6133130;23;20031;-94
2023/03/17 14:40:50;;;;;;;11.77;5.57;;;15.70;99.90;;;;;;6157067;23;20017;-95
2023/03/17 14:43:20;;;;;;;12.75;5.82;;;16.40;99.90;;;;;;6130771;23;20097;-92
2023/03/17 14:46:31;;;;;;;13.13;6.47;;;16.60;99.90;;;;;;6155577;23;20342;-94
2023/03/17 14:49:00;;;;;;;10.63;5.43;;;16.60;99.90;;;;;;6134051;23;20017;-95
2023/03/17 14:51:49;;;;;;;12.63;5.20;;;16.70;99.90;;;;;;6132813;23;20088;-94
2023/03/17 14:54:37;;;;;;;13.00;5.25;;;16.70;99.90;;;;;;6132650;23;20076;-94
2023/03/17 15:07:54;;;;;;;14.73;6.00;;;16.40;99.90;;;;;;6130464;23;20017;-90
2023/03/17 15:11:02;;;;;;;12.05;5.75;;;16.20;99.90;;;;;;6130714;23;20079;-91
2023/03/17 15:14:05;;;;;;;;;;;;;;;;;;;;;
2023/03/17 15:17:30;;;;;;;12.07;4.93;;;16.40;99.90;;;;;;6057644;23;20021;-90
2023/03/17 15:20:21;;;;;;;11.88;5.72;;;16.40;99.90;;;;;;6154863;23;20025;-89
2023/03/17 15:22:59;;;;;;;12.25;5.68;;;16.40;99.90;;;;;;6155465;23;20022;-88
2023/03/17 15:28:30;;;;;;;12.32;5.70;;;16.40;99.90;;;;;;6158122;23;20025;-89
2023/03/17 15:31:12;;;;;;;11.13;5.90;;;16.30;99.90;;;;;;6129965;23;20053;-90
2023/03/17 15:36:23;;;;;;;12.63;5.70;;;16.20;99.90;;;;;;6155233;23;20033;-88
2023/03/17 15:38:49;;;;;;;13.30;6.15;;;16.90;99.90;;;;;;6129860;23;20462;-89
2023/03/17 15:41:15;;;;;;;12.30;5.60;;;16.50;99.90;;;;;;6128806;23;20031;-90
2023/03/17 15:46:32;;;;;;;13.45;5.45;;;15.90;99.90;;;;;;6156398;23;20022;-92
2023/03/17 15:49:22;;;;;;;12.43;5.78;;;15.90;99.90;;;;;;6129683;23;20025;-91
2023/03/17 15:51:55;;;;;;;13.60;5.90;;;15.80;99.90;;;;;;6124442;23;20026;-92
2023/03/17 15:54:50;;;;;;;14.30;6.18;;;15.80;99.90;;;;;;6111059;23;20029;-91
2023/03/17 15:57:50;;;;;;;11.98;5.78;;;15.50;99.90;;;;;;6148652;23;20080;-90
2023/03/17 16:07:39;;;;;;;13.32;6.25;;;15.60;99.90;;;;;;6153861;23;20021;-90
2023/03/17 16:10:46;;;;;;;;;;;;;;;;;;;;;
2023/03/17 16:13:36;;;;;;;11.05;5.70;;;15.60;99.90;;;;;;6168819;23;20040;-89
2023/03/17 16:16:17;;;;;;;12.32;6.00;;;15.30;99.90;;;;;;6135495;23;20033;-90
2023/03/17 16:19:33;;;;;;;11.85;5.90;;;15.50;99.90;;;;;;6159816;23;20021;-89
2023/03/17 16:22:18;;;;;;;15.43;6.57;;;15.20;99.90;;;;;;6128992;23;20021;-90
2023/03/17 16:24:58;;;;;;;15.20;5.90;;;15.00;99.90;;;;;;6151480;23;20456;-90
2023/03/17 16:30:31;;;;;;;11.48;5.70;;;15.00;99.90;;;;;;6178265;23;20222;-93
2023/03/17 16:33:17;;;;;;;12.88;6.20;;;14.90;99.90;;;;;;6134573;23;20023;-92
2023/03/17 16:35:51;;;;;;;12.27;5.70;;;14.90;99.90;;;;;;6157465;23;20454;-91
2023/03/17 16:38:25;;;;;;;11.88;5.47;;;14.70;99.90;;;;;;6156780;23;20156;-92
2023/03/17 16:41:06;;;;;;;13.30;5.47;;;14.70;99.90;;;;;;6130899;23;20025;-91
2023/03/17 16:43:36;;;;;;;11.55;5.40;;;14.60;99.90;;;;;;6085885;23;20040;-92
2023/03/17 16:46:36;;;;;;;12.10;5.82;;;14.50;99.90;;;;;;6160348;23;20092;-92
2023/03/17 16:49:29;;;;;;;11.63;5.45;;;14.50;99.90;;;;;;6124369;23;20033;-92
2023/03/17 16:52:13;;;;;;;13.02;5.90;;;15.10;99.90;;;;;;6156095;23;20096;-91
2023/03/17 16:54:39;;;;;;;12.57;5.97;;;15.00;99.90;;;;;;6156016;23;20029;-92
2023/03/17 17:04:45;;;;;;;12.85;5.82;;;14.20;99.90;;;;;;6164511;23;20026;-93
2023/03/17 17:14:18;;;;;;;13.07;6.00;;;13.90;99.90;;;;;;6129346;23;20084;-93
2023/03/17 17:16:59;;;;;;;12.88;5.78;;;14.80;99.90;;;;;;6129664;23;20017;-92
2023/03/17 17:19:25;;;;;;;12.90;5.45;;;15.00;99.90;;;;;;6158948;23;20069;-92
2023/03/17 17:24:26;;;;;;;11.85;5.53;;;13.60;99.90;;;;;;6155241;23;20021;-91
2023/03/17 17:27:02;;;;;;;12.18;5.47;;;14.10;99.90;;;;;;6147873;23;20077;-92
2023/03/17 17:29:45;;;;;;;13.45;6.57;;;13.40;99.90;;;;;;6164679;23;20021;-93
2023/03/17 17:33:08;;;;;;;15.70;6.70;;;14.00;99.90;;;;;;6125429;23;20032;31
2023/03/17 17:35:34;;;;;;;13.95;6.35;;;13.30;99.90;;;;;;6108606;23;20026;-90
2023/03/17 17:38:35;;;;;;;14.77;6.40;;;14.30;99.90;;;;;;6130645;23;20025;-91
2023/03/17 17:41:07;;;;;;;14.35;7.50;;;14.20;99.90;;;;;;6128743;23;20071;-91
2023/03/17 17:43:39;;;;;;;13.25;7.22;;;14.00;99.90;;;;;;6130405;23;20442;-92
2023/03/17 17:46:17;;;;;;;13.75;6.65;;;13.40;99.90;;;;;;6157023;23;20092;-92
2023/03/17 17:49:00;;;;;;;13.38;7.38;;;13.60;99.90;;;;;;6064902;23;20033;-91
2023/03/17 17:51:38;;;;;;;13.63;7.15;;;13.60;99.90;;;;;;6067749;23;20023;-91
2023/03/17 17:54:18;;;;;;;14.70;7.03;;;12.70;99.90;;;;;;6065179;23;20098;-91
2023/03/17 17:57:05;;;;;;;16.67;6.97;;;12.70;99.90;;;;;;6041271;23;20030;-92
2023/03/17 18:00:00;;;;;;;14.18;7.20;;;12.00;99.90;;;;;;6074461;23;20025;-92
2023/03/17 18:02:37;;;;;;;14.48;7.00;;;12.50;99.90;;;;;;6127166;23;20108;-90
2023/03/17 18:05:12;;;;;;;16.13;7.82;;;12.50;99.90;;;;;;6129972;23;20005;-86
2023/03/17 18:07:38;;;;;;;14.80;7.35;;;12.40;99.90;;;;;;6153815;23;20018;-83
2023/03/17 18:22:49;;;;;;;15.38;7.60;;;12.20;99.90;;;;;;6126878;23;20018;-84
2023/03/17 18:25:14;;;;;;;14.05;7.28;;;13.00;99.90;;;;;;6154567;23;20504;-83
2023/03/17 18:27:46;;;;;;;13.45;7.22;;;12.00;99.90;;;;;;6128297;23;20018;-84
2023/03/17 18:30:24;;;;;;;12.85;7.18;;;12.10;99.90;;;;;;6153885;23;20514;-85
2023/03/17 18:33:21;;;;;;;15.55;6.90;;;11.90;99.90;;;;;;6127786;23;20022;-85
2023/03/17 18:35:57;;;;;;;15.10;6.80;;;11.10;99.90;;;;;;6126849;23;20272;-85
2023/03/17 18:38:23;;;;;;;15.43;7.55;;;11.90;99.90;;;;;;6127802;23;20431;-84
2023/03/17 18:40:49;;;;;;;13.85;7.10;;;12.40;99.90;;;;;;6154726;23;20013;-84
2023/03/17 18:43:15;;;;;;;12.85;6.68;;;12.90;99.90;;;;;;6126435;23;20210;-85
2023/03/17 18:45:52;;;;;;;13.57;6.47;;;12.50;99.90;;;;;;6127586;23;20057;-85
2023/03/17 18:48:36;;;;;;;16.10;7.32;;;13.10;99.90;;;;;;6127346;23;20465;-85
2023/03/17 18:51:02;;;;;;;15.90;7.18;;;12.60;99.90;;;;;;6127344;23;20017;-85